createdAt,value
2022-10-24T00:00:25.221Z,100237.78
2022-10-24T00:02:55.217Z,100229.84
2022-10-24T00:05:25.973Z,100235.13
2022-10-24T00:07:55.775Z,100232.47
2022-10-24T00:10:28.217Z,100234.25
2022-10-24T00:12:58.432Z,100233.38
2022-10-24T00:15:28.209Z,100235.09
2022-10-24T00:17:57.937Z,100233.38
2022-10-24T00:20:27.664Z,100233.34
2022-10-24T00:22:57.372Z,100236.00
2022-10-24T00:25:29.700Z,100242.16
2022-10-24T00:27:59.481Z,100233.31
2022-10-24T00:30:29.330Z,100235.97
2022-10-24T00:32:59.131Z,100230.69
2022-10-24T00:35:28.842Z,100232.44
2022-10-24T00:37:59.070Z,100230.66
2022-10-24T00:40:31.507Z,100229.78
2022-10-24T00:43:01.217Z,100236.84
2022-10-24T00:45:43.135Z,100235.97
2022-10-24T00:48:18.018Z,100240.38
2022-10-24T00:50:49.548Z,100243.03
2022-10-24T00:53:19.678Z,100237.72
2022-10-24T00:55:55.502Z,100235.97
2022-10-24T00:58:28.800Z,100229.78
2022-10-24T01:00:59.397Z,100233.31
2022-10-24T01:03:29.975Z,100231.53
2022-10-24T01:06:15.049Z,100233.34
2022-10-24T01:08:52.266Z,100233.34
2022-10-24T01:11:40.869Z,100230.69
2022-10-24T01:14:18.568Z,100227.16
2022-10-24T01:16:53.737Z,100223.66
2022-10-24T01:19:46.824Z,100227.16
2022-10-24T01:22:22.227Z,100217.44
2022-10-24T01:25:09.129Z,100225.41
2022-10-24T01:28:03.710Z,100222.75
2022-10-24T01:30:44.269Z,100222.78
2022-10-24T01:33:21.305Z,100210.41
2022-10-24T01:35:55.732Z,100207.78
2022-10-24T01:38:32.915Z,100206.03
2022-10-24T01:41:07.641Z,100201.59
2022-10-24T01:43:42.132Z,100198.06
2022-10-24T01:46:18.414Z,100196.31
2022-10-24T01:48:52.563Z,100207.78
2022-10-24T01:51:28.242Z,100191.91
2022-10-24T01:53:59.767Z,100188.34
2022-10-24T01:56:30.128Z,100178.66
2022-10-24T01:59:08.317Z,100183.97
2022-10-24T02:01:44.312Z,100166.31
2022-10-24T02:04:15.046Z,100169.84
2022-10-24T02:06:46.323Z,100170.75
2022-10-24T02:09:20.079Z,100161.91
2022-10-24T02:11:51.421Z,100159.25
2022-10-24T02:14:26.730Z,100150.44
2022-10-24T02:16:59.663Z,100146.03
2022-10-24T02:19:30.028Z,100144.28
2022-10-24T02:22:06.506Z,100143.41
2022-10-24T02:24:42.056Z,100136.34
2022-10-24T02:27:17.391Z,100127.53
2022-10-24T02:29:53.410Z,100124.88
2022-10-24T02:32:31.086Z,100124.00
2022-10-24T02:35:02.342Z,100121.38
2022-10-24T02:37:34.029Z,100123.13
2022-10-24T02:40:06.391Z,100117.84
2022-10-24T02:42:37.862Z,100110.78
2022-10-24T02:45:10.354Z,100100.16
2022-10-24T02:47:45.874Z,100092.22
2022-10-24T02:50:16.503Z,100095.78
2022-10-24T02:52:46.904Z,100091.34
2022-10-24T02:55:16.893Z,100084.28
2022-10-24T02:57:46.626Z,100084.31
2022-10-24T03:00:18.796Z,100084.31
2022-10-24T03:02:51.441Z,100079.00
2022-10-24T03:05:21.265Z,100074.59
2022-10-24T03:07:51.111Z,100079.88
2022-10-24T03:10:20.909Z,100073.72
2022-10-24T03:12:50.780Z,100075.47
2022-10-24T03:15:20.561Z,100071.94
2022-10-24T03:17:52.908Z,100073.72
2022-10-24T03:20:22.574Z,100068.41
2022-10-24T03:22:52.336Z,100071.06
2022-10-24T03:25:22.137Z,100064.00
2022-10-24T03:27:51.853Z,100065.78
2022-10-24T03:30:21.833Z,100061.34
2022-10-24T03:32:54.264Z,100063.09
2022-10-24T03:35:24.173Z,100062.22
2022-10-24T03:37:53.946Z,100058.72
2022-10-24T03:40:23.762Z,100049.88
2022-10-24T03:42:53.491Z,100054.28
2022-10-24T03:45:23.242Z,100060.47
2022-10-24T03:47:55.614Z,100055.16
2022-10-24T03:50:25.399Z,100061.38
2022-10-24T03:52:55.146Z,100058.69
2022-10-24T03:55:25.386Z,100056.94
2022-10-24T03:57:55.130Z,100056.94
2022-10-24T04:00:28.068Z,100056.94
2022-10-24T04:03:00.424Z,100062.25
2022-10-24T04:05:30.314Z,100055.19
2022-10-24T04:08:00.027Z,100052.53
2022-10-24T04:10:30.359Z,100053.41
2022-10-24T04:13:00.156Z,100056.94
2022-10-24T04:15:29.987Z,100055.19
2022-10-24T04:18:02.401Z,100062.22
2022-10-24T04:20:32.185Z,100050.75
2022-10-24T04:23:04.355Z,100049.00
2022-10-24T04:25:34.653Z,100049.88
2022-10-24T04:28:04.396Z,100052.50
2022-10-24T04:30:34.223Z,100049.88
2022-10-24T04:33:06.644Z,100048.09
2022-10-24T04:35:36.325Z,100045.44
2022-10-24T04:38:06.032Z,100044.56
2022-10-24T04:40:35.745Z,100044.56
2022-10-24T04:43:05.452Z,100047.22
2022-10-24T04:45:35.197Z,100045.44
2022-10-24T04:48:07.974Z,100041.00
2022-10-24T04:50:37.798Z,100043.69
2022-10-24T04:53:07.503Z,100043.69
2022-10-24T04:58:27.815Z,100038.38
2022-10-24T05:00:57.570Z,100048.94
2022-10-24T05:03:29.923Z,100045.41
2022-10-24T05:05:59.642Z,100045.41
2022-10-24T05:08:29.455Z,100048.06
2022-10-24T05:10:59.181Z,100048.91
2022-10-24T05:13:31.777Z,100055.13
2022-10-24T05:16:05.556Z,100049.81
2022-10-24T05:18:37.899Z,100052.44
2022-10-24T05:21:08.034Z,100049.78
2022-10-24T05:23:37.725Z,100048.03
2022-10-24T05:26:07.849Z,100053.31
2022-10-24T05:28:37.896Z,100049.78
2022-10-24T05:31:07.977Z,100036.53
2022-10-24T05:33:40.425Z,100042.69
2022-10-24T05:36:11.645Z,100035.63
2022-10-24T05:38:41.376Z,100037.38
2022-10-24T05:41:11.134Z,100038.28
2022-10-24T05:43:40.877Z,100030.31
2022-10-24T05:46:10.620Z,100034.72
2022-10-24T05:48:42.934Z,100040.03
2022-10-24T05:51:12.672Z,100029.44
2022-10-24T05:53:42.374Z,100027.66
2022-10-24T05:56:12.206Z,100024.13
2022-10-24T05:58:41.933Z,100031.22
2022-10-24T06:01:11.690Z,100026.81
2022-10-24T06:03:44.181Z,100024.19
2022-10-24T06:06:14.029Z,100014.44
2022-10-24T06:08:43.809Z,100018.00
2022-10-24T06:11:15.006Z,100022.44
2022-10-24T06:13:44.732Z,100021.53
2022-10-24T06:16:15.146Z,100018.88
2022-10-24T06:18:47.583Z,100018.88
2022-10-24T06:21:17.438Z,100020.63
2022-10-24T06:23:47.260Z,100020.66
2022-10-24T06:26:20.352Z,100016.25
2022-10-24T06:28:52.924Z,100024.19
2022-10-24T06:31:22.797Z,100026.81
2022-10-24T06:33:55.833Z,100028.63
2022-10-24T06:36:28.053Z,100025.06
2022-10-24T06:39:00.499Z,100033.91
2022-10-24T06:41:30.281Z,100027.72
2022-10-24T06:44:00.132Z,100033.91
2022-10-24T06:46:29.941Z,100028.63
2022-10-24T06:49:02.498Z,100034.78
2022-10-24T06:51:32.521Z,100032.13
2022-10-24T06:54:02.854Z,100036.56
2022-10-24T06:56:32.622Z,100043.59
2022-10-24T06:59:02.340Z,100045.41
2022-10-24T07:01:32.807Z,100044.50
2022-10-24T07:04:05.613Z,100043.66
2022-10-24T07:06:35.957Z,100049.81
2022-10-24T07:09:10.324Z,100051.59
2022-10-24T07:11:42.833Z,100044.53
2022-10-24T07:14:12.860Z,100048.06
2022-10-24T07:16:43.086Z,100047.19
2022-10-24T07:19:15.999Z,100041.00
2022-10-24T07:21:45.736Z,100053.38
2022-10-24T07:24:15.653Z,100053.38
2022-10-24T07:26:45.401Z,100054.25
2022-10-24T07:29:15.121Z,100050.72
2022-10-24T07:31:44.981Z,100051.63
2022-10-24T07:34:17.498Z,100056.03
2022-10-24T07:36:47.266Z,100042.81
2022-10-24T07:39:17.029Z,100049.88
2022-10-24T07:41:46.781Z,100046.34
2022-10-24T07:44:16.491Z,100047.22
2022-10-24T07:46:46.201Z,100043.72
2022-10-24T07:49:18.569Z,100040.19
2022-10-24T07:51:48.262Z,100045.47
2022-10-24T07:54:18.095Z,100042.81
2022-10-24T07:56:47.874Z,100036.63
2022-10-24T07:59:37.042Z,100033.09
2022-10-24T08:02:07.309Z,100049.03
2022-10-24T08:04:39.611Z,100034.03
2022-10-24T08:07:13.648Z,100034.00
2022-10-24T08:09:44.664Z,100028.72
2022-10-24T08:12:14.889Z,100033.13
2022-10-24T08:14:45.141Z,100036.66
2022-10-24T08:17:14.868Z,100034.88
2022-10-24T08:19:47.166Z,100030.47
2022-10-24T08:22:17.059Z,100032.25
2022-10-24T08:24:47.324Z,100031.34
2022-10-24T08:27:17.042Z,100048.13
2022-10-24T08:29:46.814Z,100038.41
2022-10-24T08:32:16.585Z,100059.63
2022-10-24T08:34:48.929Z,100053.44
2022-10-24T08:37:18.640Z,100053.44
2022-10-24T08:39:48.662Z,100058.75
2022-10-24T08:42:19.973Z,100061.41
2022-10-24T08:44:50.131Z,100062.28
2022-10-24T08:47:29.369Z,100055.19
2022-10-24T08:50:07.200Z,100076.41
2022-10-24T08:52:41.226Z,100067.53
2022-10-24T08:55:48.046Z,100071.97
2022-10-24T08:58:07.426Z,100071.06
2022-10-24T09:00:49.214Z,100059.53
2022-10-24T09:03:54.963Z,100065.75
2022-10-24T09:06:28.244Z,100063.09
2022-10-24T09:09:01.213Z,100063.09
2022-10-24T09:11:39.725Z,100071.94
2022-10-24T09:14:16.465Z,100075.50
2022-10-24T09:16:48.562Z,100073.69
2022-10-24T09:19:24.115Z,100064.84
2022-10-24T09:21:55.301Z,100063.06
2022-10-24T09:24:37.098Z,100064.84
2022-10-24T09:27:10.579Z,100076.34
2022-10-24T09:29:40.678Z,100071.03
2022-10-24T09:32:18.929Z,100074.56
2022-10-24T09:34:51.713Z,100081.63
2022-10-24T09:37:41.306Z,100086.03
2022-10-24T09:40:23.060Z,100091.38
2022-10-24T09:42:57.646Z,100093.13
2022-10-24T09:45:49.279Z,100100.19
2022-10-24T09:48:29.155Z,100099.31
2022-10-24T09:51:03.224Z,100091.34
2022-10-24T09:53:36.448Z,100104.59
2022-10-24T09:56:12.400Z,100092.25
2022-10-24T09:58:43.203Z,100102.00
2022-10-24T10:01:23.721Z,100111.72
2022-10-24T10:04:09.427Z,100112.63
2022-10-24T10:06:47.731Z,100121.47
2022-10-24T10:09:19.633Z,100129.44
2022-10-24T10:12:05.274Z,100133.88
2022-10-24T10:14:35.001Z,100125.03
2022-10-24T10:17:07.974Z,100120.59
2022-10-24T10:19:40.996Z,100146.25
2022-10-24T10:22:27.116Z,100154.22
2022-10-24T10:24:58.276Z,100140.09
2022-10-24T10:27:33.299Z,100158.66
2022-10-24T10:30:27.512Z,100142.72
2022-10-24T10:33:12.437Z,100156.00
2022-10-24T10:35:47.945Z,100148.94
2022-10-24T10:38:49.764Z,100174.56
2022-10-24T10:41:32.143Z,100166.59
2022-10-24T10:44:17.646Z,100162.19
2022-10-24T10:46:57.054Z,100160.44
2022-10-24T10:49:32.678Z,100174.56
2022-10-24T10:52:10.085Z,100185.16
2022-10-24T10:55:05.278Z,100168.34
2022-10-24T10:57:41.454Z,100178.09
2022-10-24T11:00:14.435Z,100170.13
2022-10-24T11:02:59.979Z,100186.06
2022-10-24T11:05:40.573Z,100166.59
2022-10-24T11:08:24.384Z,100186.03
2022-10-24T11:11:00.807Z,100184.25
2022-10-24T11:13:37.250Z,100190.47
2022-10-24T11:16:10.325Z,100194.91
2022-10-24T11:18:43.358Z,100189.56
2022-10-24T11:21:14.982Z,100193.13
2022-10-24T11:27:21.775Z,100176.31
2022-10-24T11:29:56.361Z,100195.78
2022-10-24T11:32:34.722Z,100191.38
2022-10-24T11:35:10.613Z,100194.00
2022-10-24T11:37:43.158Z,100204.63
2022-10-24T11:40:16.314Z,100216.13
2022-10-24T11:42:54.500Z,100213.50
2022-10-24T11:45:28.675Z,100201.09
2022-10-24T11:48:06.977Z,100221.44
2022-10-24T11:50:41.783Z,100205.50
2022-10-24T11:53:23.688Z,100202.84
2022-10-24T11:55:58.769Z,100221.44
2022-10-24T11:58:34.648Z,100232.94
2022-10-24T12:01:25.280Z,100234.72
2022-10-24T12:04:33.526Z,100224.09
2022-10-24T12:07:30.695Z,100228.53
2022-10-24T12:10:30.841Z,100207.28
2022-10-24T12:13:26.750Z,100217.03
2022-10-24T12:16:07.329Z,100248.84
2022-10-24T12:18:40.389Z,100255.94
2022-10-24T12:21:13.369Z,100255.06
2022-10-24T12:23:44.368Z,100266.56
2022-10-24T12:26:22.276Z,100263.94
2022-10-24T12:29:02.924Z,100278.97
2022-10-24T12:31:37.414Z,100285.16
2022-10-24T12:34:49.449Z,100285.16
2022-10-24T12:37:36.636Z,100292.25
2022-10-24T12:40:36.324Z,100292.22
2022-10-24T12:43:17.547Z,100293.13
2022-10-24T12:45:47.278Z,100297.53
2022-10-24T12:48:31.265Z,100304.63
2022-10-24T12:51:22.901Z,100312.59
2022-10-24T12:54:21.422Z,100319.66
2022-10-24T12:57:24.116Z,100309.00
2022-10-24T12:59:56.448Z,100320.47
2022-10-24T13:02:54.323Z,100326.66
2022-10-24T13:05:59.982Z,100317.78
2022-10-24T13:08:43.624Z,100317.78
2022-10-24T13:11:31.883Z,100320.41
2022-10-24T13:14:20.270Z,100321.31
2022-10-24T13:17:02.037Z,100324.88
2022-10-24T13:19:32.689Z,100329.31
2022-10-24T13:22:05.762Z,100326.66
2022-10-24T13:24:37.576Z,100326.69
2022-10-24T13:27:29.975Z,100338.19
2022-10-24T13:30:06.598Z,100339.97
2022-10-24T13:32:37.996Z,100338.19
2022-10-24T13:35:09.129Z,100332.88
2022-10-24T13:37:46.261Z,100353.22
2022-10-24T13:40:19.773Z,100357.63
2022-10-24T13:42:54.785Z,100352.28
2022-10-24T13:45:30.490Z,100360.22
2022-10-24T13:48:04.373Z,100360.19
2022-10-24T13:50:37.397Z,100339.81
2022-10-24T13:53:24.481Z,100368.09
2022-10-24T13:55:58.909Z,100362.72
2022-10-24T13:58:32.478Z,100371.50
2022-10-24T14:01:08.647Z,100369.72
2022-10-24T14:03:42.367Z,100383.78
2022-10-24T14:06:13.400Z,100384.66
2022-10-24T14:09:02.793Z,100382.88
2022-10-24T14:11:37.225Z,100386.41
2022-10-24T14:14:10.967Z,100381.09
2022-10-24T14:16:42.908Z,100396.09
2022-10-24T14:19:31.965Z,100397.84
2022-10-24T14:22:02.908Z,100396.94
2022-10-24T14:24:35.565Z,100404.00
2022-10-24T14:27:05.250Z,100404.91
2022-10-24T14:29:34.989Z,100402.22
2022-10-24T14:32:08.054Z,100404.84
2022-10-24T14:34:39.844Z,100404.84
2022-10-24T14:37:15.180Z,100420.72
2022-10-24T14:39:47.593Z,100425.16
2022-10-24T14:42:19.441Z,100411.00
2022-10-24T14:44:49.784Z,100409.25
2022-10-24T14:47:29.643Z,100413.66
2022-10-24T14:50:00.161Z,100418.91
2022-10-24T14:52:36.697Z,100410.09
2022-10-24T14:55:23.645Z,100416.25
2022-10-24T14:57:55.497Z,100412.69
2022-10-24T15:00:28.221Z,100426.78
2022-10-24T15:03:01.481Z,100425.88
2022-10-24T15:05:35.207Z,100432.06
2022-10-24T15:08:26.260Z,100439.16
2022-10-24T15:11:21.973Z,100435.59
2022-10-24T15:14:06.820Z,100442.69
2022-10-24T15:16:39.520Z,100445.34
2022-10-24T15:19:15.488Z,100445.38
2022-10-24T15:21:49.218Z,100447.16
2022-10-24T15:24:26.615Z,100455.06
2022-10-24T15:27:12.500Z,100451.53
2022-10-24T15:29:43.022Z,100459.47
2022-10-24T15:32:14.152Z,100456.81
2022-10-24T15:34:43.942Z,100458.56
2022-10-24T15:37:21.540Z,100460.38
2022-10-24T15:39:51.857Z,100463.88
2022-10-24T15:42:24.843Z,100466.53
2022-10-24T15:44:54.569Z,100471.81
2022-10-24T15:47:25.152Z,100479.78
2022-10-24T15:49:54.995Z,100475.34
2022-10-24T15:52:24.724Z,100483.31
2022-10-24T15:54:54.410Z,100477.97
2022-10-24T15:57:26.724Z,100482.41
2022-10-24T15:59:57.830Z,100488.56
2022-10-24T16:02:28.157Z,100493.84
2022-10-24T16:04:57.936Z,100500.00
2022-10-24T16:07:27.628Z,100498.25
2022-10-24T16:09:57.406Z,100500.00
2022-10-24T16:12:29.856Z,100492.91
2022-10-24T16:14:59.561Z,100492.88
2022-10-24T16:17:29.263Z,100492.88
2022-10-24T16:19:59.001Z,100506.09
2022-10-24T16:22:28.734Z,100507.84
2022-10-24T16:24:58.450Z,100514.91
2022-10-24T16:27:30.899Z,100519.31
2022-10-24T16:30:00.595Z,100528.16
2022-10-24T16:32:30.458Z,100524.63
2022-10-24T16:35:00.704Z,100524.59
2022-10-24T16:37:30.369Z,100531.66
2022-10-24T16:40:00.067Z,100534.28
2022-10-24T16:42:32.433Z,100531.59
2022-10-24T16:45:02.582Z,100541.31
2022-10-24T16:47:32.426Z,100536.00
2022-10-24T16:50:02.728Z,100540.38
2022-10-24T16:52:32.424Z,100543.91
2022-10-24T16:55:02.128Z,100551.88
2022-10-24T16:57:34.440Z,100560.69
2022-10-24T17:00:04.196Z,100551.84
2022-10-24T17:02:33.920Z,100559.75
2022-10-24T17:05:03.642Z,100566.84
2022-10-24T17:07:33.397Z,100576.50
2022-10-24T17:10:03.068Z,100573.88
2022-10-24T17:12:35.473Z,100571.22
2022-10-24T17:15:05.524Z,100579.13
2022-10-24T17:17:36.108Z,100582.66
2022-10-24T17:20:07.257Z,100576.44
2022-10-24T17:22:37.641Z,100578.22
2022-10-24T17:25:09.434Z,100587.88
2022-10-24T17:27:41.930Z,100589.66
2022-10-24T17:30:17.226Z,100591.41
2022-10-24T17:32:47.445Z,100594.06
2022-10-24T17:35:20.687Z,100602.00
2022-10-24T17:38:01.692Z,100589.66
2022-10-24T17:40:40.361Z,100608.19
2022-10-24T17:43:19.941Z,100608.19
2022-10-24T17:45:50.916Z,100606.38
2022-10-24T17:48:21.293Z,100608.16
2022-10-24T17:50:51.680Z,100614.28
2022-10-24T17:53:22.102Z,100609.03
2022-10-24T17:55:52.032Z,100607.25
2022-10-24T17:58:25.417Z,100614.28
2022-10-24T18:00:55.233Z,100609.88
2022-10-24T18:03:25.093Z,100617.81
2022-10-24T18:05:54.866Z,100616.03
2022-10-24T18:08:24.604Z,100621.31
2022-10-24T18:10:54.306Z,100628.38
2022-10-24T18:13:26.643Z,100622.19
2022-10-24T18:15:56.342Z,100618.69
2022-10-24T18:18:26.075Z,100628.34
2022-10-24T18:20:55.802Z,100626.53
2022-10-24T18:23:25.493Z,100629.19
2022-10-24T18:25:55.293Z,100624.75
2022-10-24T18:28:27.875Z,100632.66
2022-10-24T18:30:57.824Z,100633.53
2022-10-24T18:33:27.565Z,100634.38
2022-10-24T18:35:57.292Z,100641.44
2022-10-24T18:38:27.001Z,100632.56
2022-10-24T18:40:57.296Z,100645.81
2022-10-24T18:43:29.949Z,100651.09
2022-10-24T18:46:00.478Z,100642.28
2022-10-24T18:48:30.732Z,100651.91
2022-10-24T18:51:01.004Z,100651.91
2022-10-24T18:53:34.801Z,100661.63
2022-10-24T18:56:04.932Z,100658.97
2022-10-24T18:58:37.495Z,100658.97
2022-10-24T19:01:08.015Z,100661.56
2022-10-24T19:03:39.988Z,100657.16
2022-10-24T19:06:20.264Z,100666.00
2022-10-24T19:08:50.201Z,100659.78
2022-10-24T19:11:20.230Z,100662.41
2022-10-24T19:13:52.878Z,100664.16
2022-10-24T19:16:28.681Z,100651.81
2022-10-24T19:19:03.598Z,100664.09
2022-10-24T19:21:33.942Z,100657.94
2022-10-24T19:24:03.641Z,100662.31
2022-10-24T19:26:33.336Z,100667.59
2022-10-24T19:29:06.095Z,100669.38
2022-10-24T19:31:35.883Z,100663.16
2022-10-24T19:34:05.593Z,100669.28
2022-10-24T19:36:35.422Z,100667.53
2022-10-24T19:39:05.237Z,100667.47
2022-10-24T19:41:35.701Z,100674.53
2022-10-24T19:44:08.341Z,100669.19
2022-10-24T19:46:38.047Z,100669.16
2022-10-24T19:49:07.791Z,100661.22
2022-10-24T19:51:39.631Z,100665.63
2022-10-24T19:54:09.339Z,100664.75
2022-10-24T19:56:39.069Z,100668.28
2022-10-24T19:59:12.393Z,100668.28
2022-10-24T20:01:43.764Z,100668.28
2022-10-24T20:04:13.625Z,100670.88
2022-10-24T20:06:43.309Z,100665.56
2022-10-24T20:09:14.225Z,100667.31
2022-10-24T20:11:43.924Z,100668.19
2022-10-24T20:14:16.229Z,100660.25
2022-10-24T20:16:45.920Z,100664.66
2022-10-24T20:19:15.599Z,100662.00
2022-10-24T20:21:45.311Z,100666.41
2022-10-24T20:24:15.273Z,100668.16
2022-10-24T20:26:44.984Z,100668.16
2022-10-24T20:29:17.441Z,100670.75
2022-10-24T20:31:49.175Z,100674.28
2022-10-24T20:34:19.252Z,100667.25
2022-10-24T20:36:49.570Z,100676.00
2022-10-24T20:39:21.194Z,100682.22
2022-10-24T20:41:54.064Z,100685.72
2022-10-24T20:44:26.936Z,100687.50
2022-10-24T20:46:59.243Z,100689.22
2022-10-24T20:49:29.126Z,100696.28
2022-10-24T20:51:58.918Z,100695.34
2022-10-24T20:54:28.968Z,100706.78
2022-10-24T20:56:58.665Z,100703.25
2022-10-24T20:59:30.953Z,100707.69
2022-10-24T21:02:00.816Z,100706.78
2022-10-24T21:04:30.605Z,100711.22
2022-10-24T21:07:00.310Z,100712.09
2022-10-24T21:09:30.022Z,100718.28
2022-10-24T21:11:59.704Z,100716.50
2022-10-24T21:14:32.027Z,100718.28
2022-10-24T21:17:01.965Z,100727.97
2022-10-24T21:19:31.652Z,100727.09
2022-10-24T21:22:01.349Z,100725.28
2022-10-24T21:24:31.070Z,100734.16
2022-10-24T21:27:00.774Z,100733.31
2022-10-24T21:29:34.201Z,100730.66
2022-10-24T21:32:04.385Z,100728.03
2022-10-24T21:34:34.920Z,100733.34
2022-10-24T21:37:05.718Z,100724.53
2022-10-24T21:39:35.552Z,100729.00
2022-10-24T21:42:05.560Z,100743.97
2022-10-24T21:44:37.894Z,100735.16
2022-10-24T21:47:07.723Z,100730.72
2022-10-24T21:49:37.441Z,100732.47
2022-10-24T21:52:07.656Z,100731.56
2022-10-24T21:54:37.393Z,100737.72
2022-10-24T21:57:07.249Z,100750.00
2022-10-24T21:59:39.546Z,100749.13
2022-10-24T22:02:09.346Z,100749.97
2022-10-24T22:04:39.288Z,100753.44
2022-10-24T22:07:08.996Z,100754.28
2022-10-24T22:09:38.700Z,100757.75
2022-10-24T22:12:08.844Z,100752.44
2022-10-24T22:14:41.153Z,100752.44
2022-10-24T22:17:10.824Z,100759.44
2022-10-24T22:19:40.588Z,100763.84
2022-10-24T22:22:10.297Z,100770.00
2022-10-24T22:24:39.984Z,100768.19
2022-10-24T22:27:09.704Z,100764.63
2022-10-24T22:29:42.021Z,100765.50
2022-10-24T22:32:15.788Z,100774.28
2022-10-24T22:34:46.115Z,100778.69
2022-10-24T22:37:26.374Z,100778.69
2022-10-24T22:39:56.732Z,100772.50
2022-10-24T22:42:26.833Z,100777.75
2022-10-24T22:44:59.789Z,100782.16
2022-10-24T22:47:51.108Z,100785.66
2022-10-24T22:50:39.338Z,100780.34
2022-10-24T22:53:14.369Z,100789.16
2022-10-24T22:55:52.473Z,100790.84
2022-10-24T22:58:23.027Z,100785.53
2022-10-24T23:01:01.870Z,100790.75
2022-10-24T23:03:41.832Z,100786.31
2022-10-24T23:06:19.868Z,100796.88
2022-10-24T23:08:49.600Z,100802.09
2022-10-24T23:11:19.915Z,100805.63
2022-10-24T23:13:50.153Z,100803.84
2022-10-24T23:16:32.759Z,100808.22
2022-10-24T23:19:03.064Z,100797.66
2022-10-24T23:21:39.273Z,100805.53
2022-10-24T23:24:18.223Z,100806.41
2022-10-24T23:26:56.984Z,100805.50
2022-10-24T23:29:32.417Z,100805.50
2022-10-24T23:32:06.377Z,100805.50
2022-10-24T23:34:36.909Z,100807.25
2022-10-24T23:37:07.837Z,100809.00
2022-10-24T23:39:38.772Z,100817.81
2022-10-24T23:42:09.229Z,100819.56
2022-10-24T23:44:39.608Z,100809.00
2022-10-24T23:47:24.444Z,100812.53
2022-10-24T23:50:01.182Z,100816.06
2022-10-24T23:52:40.817Z,100819.56
2022-10-24T23:55:14.696Z,100822.16
2022-10-24T23:57:44.773Z,100825.72
